createdAt,value
2023-03-05T00:01:38.196Z,3.65
2023-03-05T00:04:08.162Z,3.65
2023-03-05T00:06:34.639Z,3.66
2023-03-05T00:09:01.975Z,3.65
2023-03-05T00:11:30.551Z,3.65
2023-03-05T00:13:58.050Z,3.65
2023-03-05T00:16:26.853Z,3.65
2023-03-05T00:18:54.875Z,3.64
2023-03-05T00:21:27.515Z,3.64
2023-03-05T00:23:55.229Z,3.63
2023-03-05T00:26:24.598Z,3.61
2023-03-05T00:28:52.451Z,3.61
2023-03-05T00:31:22.612Z,3.61
2023-03-05T00:33:54.395Z,3.54
2023-03-05T00:36:21.274Z,3.45
2023-03-05T00:38:48.397Z,3.39
2023-03-05T00:41:14.980Z,3.32
2023-03-05T00:43:41.429Z,3.28
2023-03-05T00:46:08.134Z,3.23
2023-03-05T00:48:34.743Z,3.24
2023-03-05T00:51:01.254Z,3.24
2023-03-05T00:53:27.728Z,3.25
2023-03-05T00:55:54.272Z,3.25
2023-03-05T00:58:20.736Z,3.27
2023-03-05T01:00:50.445Z,3.27
2023-03-05T01:03:18.099Z,3.26
2023-03-05T01:05:44.926Z,3.25
2023-03-05T01:08:11.656Z,3.22
2023-03-05T01:10:38.113Z,3.23
2023-03-05T01:13:04.549Z,3.22
2023-03-05T01:15:30.939Z,3.22
2023-03-05T01:17:57.373Z,3.23
2023-03-05T01:20:23.995Z,3.24
2023-03-05T01:22:50.427Z,3.23
2023-03-05T01:25:17.742Z,3.23
2023-03-05T01:27:44.407Z,3.23
2023-03-05T01:30:13.299Z,3.24
2023-03-05T01:32:40.290Z,3.22
2023-03-05T01:35:07.281Z,3.23
2023-03-05T01:37:33.782Z,3.23
2023-03-05T01:40:00.188Z,3.20
2023-03-05T01:42:26.645Z,3.19
2023-03-05T01:45:02.813Z,3.19
2023-03-05T01:47:29.628Z,3.18
2023-03-05T01:49:56.813Z,3.15
2023-03-05T01:52:26.664Z,3.13
2023-03-05T01:55:08.056Z,3.13
2023-03-05T01:57:46.041Z,3.10
2023-03-05T02:00:22.434Z,3.09
2023-03-05T02:02:50.490Z,3.09
2023-03-05T02:05:26.996Z,3.08
2023-03-05T02:07:55.587Z,3.07
2023-03-05T02:10:25.754Z,3.08
2023-03-05T02:12:54.545Z,3.08
2023-03-05T02:15:21.110Z,3.09
2023-03-05T02:17:47.798Z,3.10
2023-03-05T02:20:19.757Z,3.13
2023-03-05T02:22:46.551Z,3.13
2023-03-05T02:25:25.240Z,3.10
2023-03-05T02:27:56.986Z,3.11
2023-03-05T02:30:23.796Z,3.10
2023-03-05T02:32:50.578Z,3.10
2023-03-05T02:35:17.181Z,3.08
2023-03-05T02:37:43.887Z,3.05
2023-03-05T02:40:11.952Z,3.04
2023-03-05T02:42:38.369Z,3.02
2023-03-05T02:45:05.415Z,3.01
2023-03-05T02:47:32.053Z,2.99
2023-03-05T02:49:59.029Z,2.98
2023-03-05T02:52:25.696Z,2.96
2023-03-05T02:54:52.931Z,2.96
2023-03-05T02:57:19.696Z,2.98
2023-03-05T02:59:47.266Z,2.99
2023-03-05T03:02:14.322Z,2.98
2023-03-05T03:04:40.825Z,3.01
2023-03-05T03:07:07.255Z,3.04
2023-03-05T03:09:35.933Z,3.04
2023-03-05T03:12:03.339Z,3.04
2023-03-05T03:14:39.424Z,3.01
2023-03-05T03:17:10.945Z,3.01
2023-03-05T03:19:38.097Z,2.98
2023-03-05T03:22:04.845Z,2.96
2023-03-05T03:24:32.710Z,2.96
2023-03-05T03:26:59.196Z,2.93
2023-03-05T03:29:25.649Z,2.91
2023-03-05T03:31:52.636Z,2.88
2023-03-05T03:34:19.827Z,2.86
2023-03-05T03:36:48.963Z,2.87
2023-03-05T03:39:15.748Z,2.86
2023-03-05T03:41:48.041Z,2.85
2023-03-05T03:44:17.914Z,2.86
2023-03-05T03:46:46.295Z,2.86
2023-03-05T03:49:20.832Z,2.85
2023-03-05T03:51:48.054Z,2.84
2023-03-05T03:54:16.490Z,2.84
2023-03-05T03:56:43.236Z,2.85
2023-03-05T03:59:10.529Z,2.86
2023-03-05T04:01:37.267Z,2.85
2023-03-05T04:04:05.076Z,2.86
2023-03-05T04:06:32.673Z,2.86
2023-03-05T04:08:59.288Z,2.87
2023-03-05T04:11:26.080Z,2.88
2023-03-05T04:13:52.573Z,2.87
2023-03-05T04:16:19.397Z,2.86
2023-03-05T04:18:46.100Z,2.81
2023-03-05T04:21:12.796Z,2.82
2023-03-05T04:23:39.964Z,2.81
2023-03-05T04:26:06.771Z,2.79
2023-03-05T04:28:33.394Z,2.79
2023-03-05T04:31:00.038Z,2.79
2023-03-05T04:33:26.503Z,2.79
2023-03-05T04:35:53.127Z,2.78
2023-03-05T04:38:19.640Z,2.76
2023-03-05T04:40:46.599Z,2.78
2023-03-05T04:43:13.041Z,2.78
2023-03-05T04:45:40.749Z,2.75
2023-03-05T04:48:08.203Z,2.71
2023-03-05T04:50:34.923Z,2.69
2023-03-05T04:53:01.690Z,2.62
2023-03-05T04:55:28.221Z,2.58
2023-03-05T04:57:54.633Z,2.53
2023-03-05T05:00:21.708Z,2.49
2023-03-05T05:02:50.129Z,2.47
2023-03-05T05:05:21.595Z,2.46
2023-03-05T05:07:48.105Z,2.43
2023-03-05T05:10:15.164Z,2.44
2023-03-05T05:12:42.046Z,2.43
2023-03-05T05:15:09.199Z,2.46
2023-03-05T05:17:36.198Z,2.46
2023-03-05T05:20:06.619Z,2.43
2023-03-05T05:22:34.034Z,2.44
2023-03-05T05:25:00.849Z,2.45
2023-03-05T05:27:27.342Z,2.43
2023-03-05T05:29:53.941Z,2.43
2023-03-05T05:32:22.448Z,2.41
2023-03-05T05:34:49.577Z,2.39
2023-03-05T05:37:16.117Z,2.35
2023-03-05T05:39:42.558Z,2.34
2023-03-05T05:42:09.108Z,2.34
2023-03-05T05:44:35.545Z,2.33
2023-03-05T05:47:02.069Z,2.32
2023-03-05T05:49:28.631Z,2.31
2023-03-05T05:51:55.073Z,2.33
2023-03-05T05:54:21.509Z,2.36
2023-03-05T05:56:47.941Z,2.38
2023-03-05T05:59:14.403Z,2.40
2023-03-05T06:01:40.916Z,2.43
2023-03-05T06:04:07.455Z,2.47
2023-03-05T06:06:35.012Z,2.49
2023-03-05T06:09:02.121Z,2.50
2023-03-05T06:11:29.020Z,2.49
2023-03-05T06:13:55.530Z,2.46
2023-03-05T06:16:24.084Z,2.46
2023-03-05T06:18:51.669Z,2.45
2023-03-05T06:21:20.107Z,2.44
2023-03-05T06:23:47.686Z,2.42
2023-03-05T06:26:17.505Z,2.44
2023-03-05T06:28:44.357Z,2.44
2023-03-05T06:31:13.633Z,2.44
2023-03-05T06:33:41.123Z,2.45
2023-03-05T06:36:10.090Z,2.46
2023-03-05T06:38:36.901Z,2.45
2023-03-05T06:41:09.348Z,2.46
2023-03-05T06:43:41.500Z,2.45
2023-03-05T06:46:12.127Z,2.46
2023-03-05T06:48:39.310Z,2.46
2023-03-05T06:51:12.213Z,2.46
2023-03-05T06:53:38.666Z,2.47
2023-03-05T06:56:05.669Z,2.49
2023-03-05T06:58:32.112Z,2.51
2023-03-05T07:00:58.571Z,2.55
2023-03-05T07:03:25.050Z,2.59
2023-03-05T07:05:51.551Z,2.61
2023-03-05T07:08:17.985Z,2.66
2023-03-05T07:10:44.590Z,2.73
2023-03-05T07:13:11.138Z,2.81
2023-03-05T07:15:39.836Z,2.87
2023-03-05T07:18:07.040Z,2.96
2023-03-05T07:20:37.052Z,3.08
2023-03-05T07:23:04.245Z,3.11
2023-03-05T07:25:32.141Z,3.16
2023-03-05T07:27:58.738Z,3.19
2023-03-05T07:30:25.245Z,3.19
2023-03-05T07:32:51.694Z,3.20
2023-03-05T07:35:18.334Z,3.21
2023-03-05T07:37:44.860Z,3.21
2023-03-05T07:40:11.752Z,3.26
2023-03-05T07:42:38.271Z,3.27
2023-03-05T07:45:05.227Z,3.33
2023-03-05T07:47:31.718Z,3.35
2023-03-05T07:49:58.360Z,3.40
2023-03-05T07:52:24.908Z,3.46
2023-03-05T07:54:52.474Z,3.45
2023-03-05T07:57:18.907Z,3.46
2023-03-05T07:59:45.398Z,3.51
2023-03-05T08:02:13.516Z,3.59
2023-03-05T08:04:42.172Z,3.62
2023-03-05T08:07:08.789Z,3.66
2023-03-05T08:09:35.190Z,3.74
2023-03-05T08:12:01.688Z,3.75
2023-03-05T08:14:28.219Z,3.74
2023-03-05T08:16:54.742Z,3.80
2023-03-05T08:19:21.374Z,3.84
2023-03-05T08:21:47.890Z,3.82
2023-03-05T08:24:14.766Z,3.88
2023-03-05T08:26:41.540Z,4.00
2023-03-05T08:29:09.833Z,4.09
2023-03-05T08:31:37.065Z,4.19
2023-03-05T08:34:04.925Z,4.37
2023-03-05T08:36:32.284Z,4.55
2023-03-05T08:38:59.670Z,4.65
2023-03-05T08:41:26.209Z,4.82
2023-03-05T08:43:52.675Z,4.99
2023-03-05T08:46:19.989Z,4.95
2023-03-05T08:48:46.486Z,4.83
2023-03-05T08:51:15.658Z,4.80
2023-03-05T08:53:42.634Z,4.86
2023-03-05T08:56:09.597Z,4.89
2023-03-05T08:58:36.391Z,5.02
2023-03-05T09:01:03.218Z,5.08
2023-03-05T09:03:29.690Z,5.04
2023-03-05T09:06:04.602Z,5.05
2023-03-05T09:08:31.071Z,5.06
2023-03-05T09:10:57.825Z,5.18
2023-03-05T09:13:24.671Z,5.25
2023-03-05T09:15:55.991Z,5.36
2023-03-05T09:18:22.642Z,5.49
2023-03-05T09:20:49.119Z,5.52
2023-03-05T09:23:15.547Z,5.57
2023-03-05T09:25:42.014Z,5.43
2023-03-05T09:28:09.268Z,5.42
2023-03-05T09:30:36.216Z,5.46
2023-03-05T09:33:03.911Z,5.52
2023-03-05T09:35:30.711Z,5.48
2023-03-05T09:37:57.205Z,5.43
2023-03-05T09:40:25.917Z,5.56
2023-03-05T09:43:05.818Z,5.65
2023-03-05T09:46:05.818Z,5.63
2023-03-05T09:48:52.549Z,5.67
2023-03-05T09:51:25.682Z,5.63
2023-03-05T09:54:03.227Z,5.75
2023-03-05T09:56:34.815Z,5.69
2023-03-05T09:59:14.664Z,5.73
2023-03-05T10:01:44.640Z,5.77
2023-03-05T10:04:16.197Z,5.93
2023-03-05T10:06:48.687Z,5.98
2023-03-05T10:09:46.231Z,5.97
2023-03-05T10:12:27.846Z,6.02
2023-03-05T10:14:55.494Z,6.17
2023-03-05T10:17:43.725Z,6.21
2023-03-05T10:20:25.923Z,6.19
2023-03-05T10:22:58.611Z,6.25
2023-03-05T10:25:53.178Z,6.33
2023-03-05T10:28:28.053Z,6.36
2023-03-05T10:31:21.893Z,6.38
2023-03-05T10:33:54.394Z,6.53
2023-03-05T10:36:46.865Z,6.74
2023-03-05T10:39:39.948Z,6.85
2023-03-05T10:42:21.640Z,6.79
2023-03-05T10:44:53.054Z,6.72
2023-03-05T10:47:22.418Z,6.81
2023-03-05T10:49:52.321Z,6.85
2023-03-05T10:52:40.522Z,6.92
2023-03-05T10:55:19.286Z,7.05
2023-03-05T10:57:45.788Z,7.01
2023-03-05T11:00:24.983Z,7.06
2023-03-05T11:03:10.168Z,7.08
2023-03-05T11:05:50.445Z,7.12
2023-03-05T11:08:19.720Z,7.21
2023-03-05T11:10:46.156Z,7.21
2023-03-05T11:13:27.368Z,7.31
2023-03-05T11:16:02.302Z,7.41
2023-03-05T11:18:34.252Z,7.46
2023-03-05T11:21:18.536Z,7.57
2023-03-05T11:24:03.058Z,7.68
2023-03-05T11:26:29.496Z,7.79
2023-03-05T11:29:01.005Z,7.79
2023-03-05T11:31:30.302Z,7.75
2023-03-05T11:34:00.378Z,7.73
2023-03-05T11:36:37.143Z,7.69
2023-03-05T11:39:07.361Z,7.65
2023-03-05T11:43:17.087Z,7.66
2023-03-05T11:45:45.283Z,7.86
2023-03-05T11:48:20.848Z,7.99
2023-03-05T11:50:55.415Z,8.00
2023-03-05T11:53:25.338Z,7.78
2023-03-05T11:55:54.840Z,7.69
2023-03-05T11:58:33.010Z,7.81
2023-03-05T12:01:03.386Z,7.91
2023-03-05T12:03:36.451Z,7.99
2023-03-05T12:06:16.416Z,8.17
2023-03-05T12:08:48.169Z,8.20
2023-03-05T12:11:26.400Z,8.29
2023-03-05T12:14:04.787Z,8.06
2023-03-05T12:16:41.539Z,7.91
2023-03-05T12:19:37.425Z,7.79
2023-03-05T12:22:05.431Z,7.82
2023-03-05T12:24:31.787Z,7.90
2023-03-05T12:27:04.368Z,7.93
2023-03-05T12:29:54.345Z,7.95
2023-03-05T12:32:31.407Z,8.01
2023-03-05T12:35:05.677Z,7.91
2023-03-05T12:37:32.016Z,7.94
2023-03-05T12:40:22.902Z,7.95
2023-03-05T12:42:56.756Z,8.02
2023-03-05T12:45:29.631Z,8.03
2023-03-05T12:47:55.984Z,8.11
2023-03-05T12:50:28.456Z,8.00
2023-03-05T12:53:04.549Z,8.12
2023-03-05T12:55:36.130Z,8.18
2023-03-05T12:58:14.944Z,8.27
2023-03-05T13:00:46.344Z,8.25
2023-03-05T13:03:22.449Z,8.11
2023-03-05T13:05:52.619Z,8.07
2023-03-05T13:08:26.582Z,8.03
2023-03-05T13:10:56.919Z,8.07
2023-03-05T13:13:26.491Z,8.16
2023-03-05T13:15:53.373Z,8.08
2023-03-05T13:18:31.383Z,8.08
2023-03-05T13:21:06.841Z,8.06
2023-03-05T13:23:35.067Z,8.13
2023-03-05T13:26:18.663Z,8.04
2023-03-05T13:29:05.344Z,7.91
2023-03-05T13:31:33.766Z,7.84
2023-03-05T13:34:10.877Z,7.79
2023-03-05T13:36:38.480Z,7.80
2023-03-05T13:39:06.688Z,7.87
2023-03-05T13:41:33.442Z,7.86
2023-03-05T13:44:02.410Z,7.83
2023-03-05T13:46:39.093Z,7.86
2023-03-05T13:49:29.969Z,7.94
2023-03-05T13:51:57.866Z,7.96
2023-03-05T13:54:26.155Z,7.94
2023-03-05T13:57:08.463Z,7.87
2023-03-05T13:59:39.080Z,7.86
2023-03-05T14:02:33.483Z,7.84
2023-03-05T14:05:00.440Z,7.72
2023-03-05T14:07:39.701Z,7.64
2023-03-05T14:10:30.856Z,7.65
2023-03-05T14:12:58.698Z,7.54
2023-03-05T14:15:33.863Z,7.52
2023-03-05T14:18:18.410Z,7.49
2023-03-05T14:21:03.061Z,7.41
2023-03-05T14:23:32.603Z,7.35
2023-03-05T14:26:22.943Z,7.24
2023-03-05T14:29:15.386Z,7.09
2023-03-05T14:31:51.746Z,7.10
2023-03-05T14:34:40.002Z,7.03
2023-03-05T14:37:20.363Z,6.95
2023-03-05T14:40:05.357Z,6.87
2023-03-05T14:42:33.257Z,6.81
2023-03-05T14:45:21.388Z,6.74
2023-03-05T14:47:49.592Z,6.68
2023-03-05T14:50:18.576Z,6.63
2023-03-05T14:52:47.055Z,6.54
2023-03-05T14:55:18.211Z,6.47
2023-03-05T14:57:45.471Z,6.42
2023-03-05T15:00:17.381Z,6.38
2023-03-05T15:02:44.129Z,6.29
2023-03-05T15:05:10.615Z,6.26
2023-03-05T15:07:37.846Z,6.20
2023-03-05T15:10:05.036Z,6.17
2023-03-05T15:12:31.682Z,6.16
2023-03-05T15:14:58.106Z,6.14
2023-03-05T15:17:36.748Z,6.10
2023-03-05T15:20:10.294Z,6.04
2023-03-05T15:22:37.372Z,6.10
2023-03-05T15:25:05.453Z,6.17
2023-03-05T15:27:32.014Z,6.21
2023-03-05T15:29:59.586Z,6.21
2023-03-05T15:32:28.004Z,6.23
2023-03-05T15:34:55.502Z,6.17
2023-03-05T15:37:22.882Z,6.18
2023-03-05T15:39:49.609Z,6.16
2023-03-05T15:42:16.056Z,6.16
2023-03-05T15:44:42.481Z,6.16
2023-03-05T15:47:09.139Z,6.16
2023-03-05T15:49:35.589Z,6.13
2023-03-05T15:52:02.520Z,6.08
2023-03-05T15:54:28.995Z,6.08
2023-03-05T15:56:55.497Z,6.09
2023-03-05T15:59:22.029Z,6.06
2023-03-05T16:01:51.427Z,6.02
2023-03-05T16:04:18.682Z,5.95
2023-03-05T16:06:47.220Z,5.95
2023-03-05T16:09:15.349Z,5.94
2023-03-05T16:11:47.864Z,5.91
2023-03-05T16:14:17.287Z,5.90
2023-03-05T16:16:43.868Z,5.88
2023-03-05T16:19:13.119Z,5.86
2023-03-05T16:21:40.026Z,5.83
2023-03-05T16:24:06.599Z,5.83
2023-03-05T16:26:35.982Z,5.81
2023-03-05T16:29:02.506Z,5.77
2023-03-05T16:31:30.419Z,5.72
2023-03-05T16:33:56.879Z,5.71
2023-03-05T16:36:26.282Z,5.68
2023-03-05T16:38:54.715Z,5.67
2023-03-05T16:41:24.329Z,5.64
2023-03-05T16:43:56.343Z,5.62
2023-03-05T16:46:24.821Z,5.61
2023-03-05T16:48:51.913Z,5.55
2023-03-05T16:51:22.009Z,5.55
2023-03-05T16:53:51.921Z,5.53
2023-03-05T16:56:18.969Z,5.50
2023-03-05T16:58:45.699Z,5.47
2023-03-05T17:01:19.258Z,5.45
2023-03-05T17:03:50.921Z,5.41
2023-03-05T17:06:23.415Z,5.40
2023-03-05T17:08:52.813Z,5.36
2023-03-05T17:11:19.945Z,5.31
2023-03-05T17:13:49.081Z,5.28
2023-03-05T17:16:17.915Z,5.26
2023-03-05T17:18:44.728Z,5.23
2023-03-05T17:21:12.982Z,5.18
2023-03-05T17:23:40.084Z,5.16
2023-03-05T17:26:08.497Z,5.16
2023-03-05T17:28:35.328Z,5.16
2023-03-05T17:31:04.483Z,5.14
2023-03-05T17:33:38.493Z,5.10
2023-03-05T17:36:06.281Z,5.08
2023-03-05T17:38:32.711Z,5.07
2023-03-05T17:40:59.120Z,5.02
2023-03-05T17:43:25.568Z,5.00
2023-03-05T17:45:52.996Z,4.97
2023-03-05T17:48:19.551Z,4.97
2023-03-05T17:50:46.485Z,4.92
2023-03-05T17:53:13.033Z,4.92
2023-03-05T17:55:43.207Z,4.90
2023-03-05T17:58:09.886Z,4.89
2023-03-05T18:00:36.879Z,4.86
2023-03-05T18:03:03.854Z,4.84
2023-03-05T18:05:30.788Z,4.81
2023-03-05T18:07:57.322Z,4.79
2023-03-05T18:10:25.543Z,4.76
2023-03-05T18:12:53.583Z,4.69
2023-03-05T18:15:21.408Z,4.66
2023-03-05T18:17:48.258Z,4.64
2023-03-05T18:20:28.386Z,4.62
2023-03-05T18:22:55.595Z,4.56
2023-03-05T18:25:25.670Z,4.53
2023-03-05T18:27:53.354Z,4.49
2023-03-05T18:30:19.960Z,4.46
2023-03-05T18:32:47.513Z,4.45
2023-03-05T18:35:16.794Z,4.44
2023-03-05T18:37:43.479Z,4.45
2023-03-05T18:40:14.721Z,4.42
2023-03-05T18:42:41.302Z,4.40
2023-03-05T18:45:10.365Z,4.39
2023-03-05T18:47:38.969Z,4.38
2023-03-05T18:50:06.945Z,4.35
2023-03-05T18:52:33.478Z,4.30
2023-03-05T18:54:59.981Z,4.30
2023-03-05T18:57:26.607Z,4.27
2023-03-05T18:59:53.058Z,4.23
2023-03-05T19:02:19.491Z,4.21
2023-03-05T19:04:46.018Z,4.17
2023-03-05T19:07:12.513Z,4.19
2023-03-05T19:10:03.531Z,4.18
2023-03-05T19:12:35.279Z,4.15
2023-03-05T19:15:02.612Z,4.15
2023-03-05T19:17:32.272Z,4.13
2023-03-05T19:19:59.703Z,4.12
2023-03-05T19:22:28.456Z,4.10
2023-03-05T19:24:55.513Z,4.08
2023-03-05T19:27:21.964Z,4.05
2023-03-05T19:29:48.753Z,4.02
2023-03-05T19:32:17.711Z,4.00
2023-03-05T19:34:47.701Z,4.00
2023-03-05T19:37:14.479Z,4.00
2023-03-05T19:39:41.801Z,3.98
2023-03-05T19:42:08.508Z,3.95
2023-03-05T19:44:35.067Z,3.92
2023-03-05T19:47:02.104Z,3.91
2023-03-05T19:49:28.850Z,3.86
2023-03-05T19:51:55.622Z,3.84
2023-03-05T19:54:23.638Z,3.81
2023-03-05T19:56:52.871Z,3.79
2023-03-05T19:59:21.173Z,3.77
2023-03-05T20:01:48.813Z,3.75
2023-03-05T20:04:20.653Z,3.74
2023-03-05T20:06:47.776Z,3.72
2023-03-05T20:09:15.257Z,3.69
2023-03-05T20:11:42.067Z,3.67
2023-03-05T20:14:09.260Z,3.66
2023-03-05T20:16:37.774Z,3.64
2023-03-05T20:19:06.216Z,3.62
2023-03-05T20:21:39.621Z,3.62
2023-03-05T20:24:12.982Z,3.59
2023-03-05T20:26:40.502Z,3.55
2023-03-05T20:29:07.925Z,3.52
2023-03-05T20:31:36.889Z,3.50
2023-03-05T20:34:06.177Z,3.49
2023-03-05T20:36:34.579Z,3.45
2023-03-05T20:39:05.177Z,3.41
2023-03-05T20:41:33.021Z,3.40
2023-03-05T20:43:59.465Z,3.37
2023-03-05T20:46:28.496Z,3.36
2023-03-05T20:49:01.200Z,3.34
2023-03-05T20:51:37.773Z,3.33
2023-03-05T20:54:11.264Z,3.33
2023-03-05T20:56:37.873Z,3.29
2023-03-05T20:59:08.474Z,3.26
2023-03-05T21:01:37.505Z,3.23
2023-03-05T21:04:04.464Z,3.22
2023-03-05T21:06:32.324Z,3.21
2023-03-05T21:08:59.198Z,3.18
2023-03-05T21:11:26.234Z,3.17
2023-03-05T21:13:52.660Z,3.17
2023-03-05T21:16:22.641Z,3.16
2023-03-05T21:18:51.005Z,3.14
2023-03-05T21:21:17.712Z,3.11
2023-03-05T21:23:44.209Z,3.09
2023-03-05T21:26:10.664Z,3.10
2023-03-05T21:28:39.272Z,3.07
2023-03-05T21:31:09.243Z,3.05
2023-03-05T21:33:35.698Z,3.02
2023-03-05T21:36:02.118Z,2.99
2023-03-05T21:38:30.489Z,2.99
2023-03-05T21:40:58.545Z,2.98
2023-03-05T21:43:26.835Z,2.95
2023-03-05T21:45:54.755Z,2.92
2023-03-05T21:48:22.097Z,2.89
2023-03-05T21:50:48.915Z,2.85
2023-03-05T21:53:18.839Z,2.81
2023-03-05T21:56:07.458Z,2.76
2023-03-05T21:58:34.801Z,2.69
2023-03-05T22:01:02.130Z,2.61
2023-03-05T22:03:29.351Z,2.57
2023-03-05T22:05:56.391Z,2.50
2023-03-05T22:08:23.595Z,2.45
2023-03-05T22:10:50.385Z,2.39
2023-03-05T22:13:17.871Z,2.35
2023-03-05T22:15:55.246Z,2.31
2023-03-05T22:18:25.172Z,2.29
2023-03-05T22:20:52.597Z,2.27
2023-03-05T22:23:22.260Z,2.27
2023-03-05T22:26:03.718Z,2.27
2023-03-05T22:28:30.810Z,2.29
2023-03-05T22:30:57.471Z,2.25
2023-03-05T22:33:24.378Z,2.22
2023-03-05T22:35:50.978Z,2.18
2023-03-05T22:38:17.805Z,2.16
2023-03-05T22:40:46.390Z,2.11
2023-03-05T22:43:13.616Z,2.09
2023-03-05T22:45:40.298Z,2.02
2023-03-05T22:48:07.481Z,1.96
2023-03-05T22:50:34.006Z,1.92
2023-03-05T22:53:00.578Z,1.87
2023-03-05T22:55:27.097Z,1.83
2023-03-05T22:57:53.527Z,1.79
2023-03-05T23:00:23.698Z,1.75
2023-03-05T23:02:51.450Z,1.71
2023-03-05T23:05:18.723Z,1.69
2023-03-05T23:07:45.719Z,1.64
2023-03-05T23:10:16.908Z,1.57
2023-03-05T23:12:49.066Z,1.54
2023-03-05T23:15:22.620Z,1.51
2023-03-05T23:17:49.072Z,1.45
2023-03-05T23:20:20.257Z,1.42
2023-03-05T23:22:47.279Z,1.37
2023-03-05T23:25:14.677Z,1.29
2023-03-05T23:27:41.927Z,1.23
2023-03-05T23:30:29.050Z,1.19
2023-03-05T23:32:56.555Z,1.15
2023-03-05T23:35:35.684Z,1.08
2023-03-05T23:38:05.178Z,1.03
2023-03-05T23:40:35.718Z,1.03
2023-03-05T23:43:03.238Z,1.00
2023-03-05T23:45:30.226Z,0.97
2023-03-05T23:47:57.332Z,0.98
2023-03-05T23:50:29.792Z,0.97
2023-03-05T23:52:56.944Z,0.95
2023-03-05T23:55:33.674Z,0.93
2023-03-05T23:58:00.619Z,0.90
